sensor_id;sensor_type;location;lat;lon;timestamp;P1;durP1;ratioP1;P2;durP2;ratioP2
44588;SDS011;30298;52.562;13.414;2022-07-24T00:00:59;5.63;;;2.07;;
44588;SDS011;30298;52.562;13.414;2022-07-24T00:03:24;3.73;;;2.10;;
44588;SDS011;30298;52.562;13.414;2022-07-24T00:05:51;3.80;;;2.10;;
44588;SDS011;30298;52.562;13.414;2022-07-24T00:08:16;2.47;;;1.87;;
44588;SDS011;30298;52.562;13.414;2022-07-24T00:10:41;3.70;;;1.90;;
44588;SDS011;30298;52.562;13.414;2022-07-24T00:13:07;2.57;;;1.67;;
44588;SDS011;30298;52.562;13.414;2022-07-24T00:15:32;4.20;;;2.00;;
44588;SDS011;30298;52.562;13.414;2022-07-24T00:17:57;3.40;;;2.00;;
44588;SDS011;30298;52.562;13.414;2022-07-24T00:20:22;4.53;;;2.13;;
44588;SDS011;30298;52.562;13.414;2022-07-24T00:22:48;5.97;;;1.90;;
44588;SDS011;30298;52.562;13.414;2022-07-24T00:25:13;4.80;;;2.30;;
44588;SDS011;30298;52.562;13.414;2022-07-24T00:27:39;3.67;;;1.90;;
44588;SDS011;30298;52.562;13.414;2022-07-24T00:30:04;4.63;;;1.90;;
44588;SDS011;30298;52.562;13.414;2022-07-24T00:32:30;4.03;;;1.92;;
44588;SDS011;30298;52.562;13.414;2022-07-24T00:34:55;4.97;;;2.20;;
44588;SDS011;30298;52.562;13.414;2022-07-24T00:37:20;3.00;;;2.03;;
44588;SDS011;30298;52.562;13.414;2022-07-24T00:39:46;2.33;;;1.80;;
44588;SDS011;30298;52.562;13.414;2022-07-24T00:42:12;2.72;;;1.75;;
44588;SDS011;30298;52.562;13.414;2022-07-24T00:44:37;2.47;;;1.90;;
44588;SDS011;30298;52.562;13.414;2022-07-24T00:47:03;3.83;;;1.97;;
44588;SDS011;30298;52.562;13.414;2022-07-24T00:49:28;6.97;;;2.00;;
44588;SDS011;30298;52.562;13.414;2022-07-24T00:51:53;4.40;;;2.00;;
44588;SDS011;30298;52.562;13.414;2022-07-24T00:54:19;4.25;;;1.80;;
44588;SDS011;30298;52.562;13.414;2022-07-24T00:59:10;2.70;;;1.80;;
44588;SDS011;30298;52.562;13.414;2022-07-24T01:01:36;2.28;;;1.80;;
44588;SDS011;30298;52.562;13.414;2022-07-24T01:04:01;2.60;;;2.00;;
44588;SDS011;30298;52.562;13.414;2022-07-24T01:06:26;3.25;;;2.05;;
44588;SDS011;30298;52.562;13.414;2022-07-24T01:08:52;4.50;;;2.53;;
44588;SDS011;30298;52.562;13.414;2022-07-24T01:11:18;3.30;;;2.33;;
44588;SDS011;30298;52.562;13.414;2022-07-24T01:13:43;3.67;;;1.95;;
44588;SDS011;30298;52.562;13.414;2022-07-24T01:16:08;2.40;;;2.20;;
44588;SDS011;30298;52.562;13.414;2022-07-24T01:18:34;4.68;;;2.00;;
44588;SDS011;30298;52.562;13.414;2022-07-24T01:20:59;3.50;;;2.30;;
44588;SDS011;30298;52.562;13.414;2022-07-24T01:23:25;4.77;;;2.20;;
44588;SDS011;30298;52.562;13.414;2022-07-24T01:25:50;2.70;;;2.17;;
44588;SDS011;30298;52.562;13.414;2022-07-24T01:28:16;4.82;;;2.13;;
44588;SDS011;30298;52.562;13.414;2022-07-24T01:30:41;2.33;;;2.00;;
44588;SDS011;30298;52.562;13.414;2022-07-24T01:33:06;4.25;;;2.20;;
44588;SDS011;30298;52.562;13.414;2022-07-24T01:35:32;3.60;;;2.17;;
44588;SDS011;30298;52.562;13.414;2022-07-24T01:37:57;3.95;;;1.90;;
44588;SDS011;30298;52.562;13.414;2022-07-24T01:40:23;3.55;;;1.90;;
44588;SDS011;30298;52.562;13.414;2022-07-24T01:42:48;2.88;;;2.00;;
44588;SDS011;30298;52.562;13.414;2022-07-24T01:45:14;4.03;;;2.40;;
44588;SDS011;30298;52.562;13.414;2022-07-24T01:47:40;5.07;;;2.43;;
44588;SDS011;30298;52.562;13.414;2022-07-24T01:50:05;3.53;;;2.38;;
44588;SDS011;30298;52.562;13.414;2022-07-24T01:52:30;3.75;;;2.65;;
44588;SDS011;30298;52.562;13.414;2022-07-24T01:54:56;3.53;;;2.20;;
44588;SDS011;30298;52.562;13.414;2022-07-24T01:57:21;2.97;;;2.30;;
44588;SDS011;30298;52.562;13.414;2022-07-24T01:59:46;4.10;;;2.00;;
44588;SDS011;30298;52.562;13.414;2022-07-24T02:02:11;2.50;;;2.10;;
44588;SDS011;30298;52.562;13.414;2022-07-24T02:04:37;3.93;;;2.20;;
44588;SDS011;30298;52.562;13.414;2022-07-24T02:07:02;3.80;;;2.37;;
44588;SDS011;30298;52.562;13.414;2022-07-24T02:09:27;7.63;;;2.60;;
44588;SDS011;30298;52.562;13.414;2022-07-24T02:11:52;5.40;;;2.10;;
44588;SDS011;30298;52.562;13.414;2022-07-24T02:14:18;3.97;;;2.50;;
44588;SDS011;30298;52.562;13.414;2022-07-24T02:16:43;3.80;;;1.83;;
44588;SDS011;30298;52.562;13.414;2022-07-24T02:19:08;5.90;;;2.80;;
44588;SDS011;30298;52.562;13.414;2022-07-24T02:21:34;3.08;;;2.33;;
44588;SDS011;30298;52.562;13.414;2022-07-24T02:23:59;3.47;;;2.17;;
44588;SDS011;30298;52.562;13.414;2022-07-24T02:26:24;2.60;;;2.10;;
44588;SDS011;30298;52.562;13.414;2022-07-24T02:28:50;4.33;;;2.27;;
44588;SDS011;30298;52.562;13.414;2022-07-24T02:31:15;4.85;;;2.30;;
44588;SDS011;30298;52.562;13.414;2022-07-24T02:33:41;3.63;;;2.05;;
44588;SDS011;30298;52.562;13.414;2022-07-24T02:36:06;3.67;;;2.07;;
44588;SDS011;30298;52.562;13.414;2022-07-24T02:38:32;2.67;;;2.10;;
44588;SDS011;30298;52.562;13.414;2022-07-24T02:40:57;4.33;;;2.20;;
44588;SDS011;30298;52.562;13.414;2022-07-24T02:43:23;2.90;;;2.13;;
44588;SDS011;30298;52.562;13.414;2022-07-24T02:45:48;3.30;;;1.97;;
44588;SDS011;30298;52.562;13.414;2022-07-24T02:48:14;3.35;;;2.08;;
44588;SDS011;30298;52.562;13.414;2022-07-24T02:50:39;3.10;;;1.97;;
44588;SDS011;30298;52.562;13.414;2022-07-24T02:53:05;2.93;;;2.03;;
44588;SDS011;30298;52.562;13.414;2022-07-24T02:55:30;2.40;;;2.08;;
44588;SDS011;30298;52.562;13.414;2022-07-24T02:57:55;3.63;;;2.57;;
44588;SDS011;30298;52.562;13.414;2022-07-24T03:00:21;3.27;;;2.00;;
44588;SDS011;30298;52.562;13.414;2022-07-24T03:02:46;3.23;;;2.13;;
44588;SDS011;30298;52.562;13.414;2022-07-24T03:05:11;3.13;;;2.10;;
44588;SDS011;30298;52.562;13.414;2022-07-24T03:07:36;4.17;;;2.20;;
44588;SDS011;30298;52.562;13.414;2022-07-24T03:10:03;3.90;;;2.27;;
44588;SDS011;30298;52.562;13.414;2022-07-24T03:14:53;2.38;;;2.00;;
44588;SDS011;30298;52.562;13.414;2022-07-24T03:17:18;2.90;;;2.30;;
44588;SDS011;30298;52.562;13.414;2022-07-24T03:19:44;4.27;;;2.20;;
44588;SDS011;30298;52.562;13.414;2022-07-24T03:22:09;3.17;;;2.50;;
44588;SDS011;30298;52.562;13.414;2022-07-24T03:24:34;3.70;;;2.30;;
44588;SDS011;30298;52.562;13.414;2022-07-24T03:26:59;3.33;;;2.37;;
44588;SDS011;30298;52.562;13.414;2022-07-24T03:29:25;2.73;;;2.30;;
44588;SDS011;30298;52.562;13.414;2022-07-24T03:31:50;5.07;;;2.40;;
44588;SDS011;30298;52.562;13.414;2022-07-24T03:34:15;3.60;;;2.43;;
44588;SDS011;30298;52.562;13.414;2022-07-24T03:36:40;3.37;;;2.47;;
44588;SDS011;30298;52.562;13.414;2022-07-24T03:39:06;5.70;;;2.43;;
44588;SDS011;30298;52.562;13.414;2022-07-24T03:41:31;3.33;;;2.25;;
44588;SDS011;30298;52.562;13.414;2022-07-24T03:43:56;4.63;;;2.83;;
44588;SDS011;30298;52.562;13.414;2022-07-24T03:46:21;5.63;;;2.70;;
44588;SDS011;30298;52.562;13.414;2022-07-24T03:48:47;4.30;;;2.50;;
44588;SDS011;30298;52.562;13.414;2022-07-24T03:51:12;4.43;;;2.53;;
44588;SDS011;30298;52.562;13.414;2022-07-24T03:53:37;3.00;;;2.70;;
44588;SDS011;30298;52.562;13.414;2022-07-24T03:56:06;4.87;;;2.60;;
44588;SDS011;30298;52.562;13.414;2022-07-24T03:58:31;3.22;;;2.42;;
44588;SDS011;30298;52.562;13.414;2022-07-24T04:00:56;4.27;;;2.20;;
44588;SDS011;30298;52.562;13.414;2022-07-24T04:03:22;3.80;;;2.40;;
44588;SDS011;30298;52.562;13.414;2022-07-24T04:05:47;3.37;;;2.50;;
44588;SDS011;30298;52.562;13.414;2022-07-24T04:08:12;3.57;;;2.23;;
44588;SDS011;30298;52.562;13.414;2022-07-24T04:10:37;7.27;;;2.33;;
44588;SDS011;30298;52.562;13.414;2022-07-24T04:13:03;3.57;;;2.43;;
44588;SDS011;30298;52.562;13.414;2022-07-24T04:15:28;4.87;;;2.50;;
44588;SDS011;30298;52.562;13.414;2022-07-24T04:17:53;5.10;;;2.20;;
44588;SDS011;30298;52.562;13.414;2022-07-24T04:20:18;4.40;;;2.80;;
44588;SDS011;30298;52.562;13.414;2022-07-24T04:22:44;4.23;;;2.80;;
44588;SDS011;30298;52.562;13.414;2022-07-24T04:25:09;4.00;;;2.30;;
44588;SDS011;30298;52.562;13.414;2022-07-24T04:27:34;3.40;;;2.20;;
44588;SDS011;30298;52.562;13.414;2022-07-24T04:29:59;3.27;;;2.10;;
44588;SDS011;30298;52.562;13.414;2022-07-24T04:32:25;7.25;;;2.53;;
44588;SDS011;30298;52.562;13.414;2022-07-24T04:34:53;3.17;;;2.50;;
44588;SDS011;30298;52.562;13.414;2022-07-24T04:37:19;5.68;;;2.70;;
44588;SDS011;30298;52.562;13.414;2022-07-24T04:39:44;3.93;;;2.37;;
44588;SDS011;30298;52.562;13.414;2022-07-24T04:42:09;5.33;;;2.50;;
44588;SDS011;30298;52.562;13.414;2022-07-24T04:44:34;3.17;;;2.47;;
44588;SDS011;30298;52.562;13.414;2022-07-24T04:47:00;5.03;;;2.40;;
44588;SDS011;30298;52.562;13.414;2022-07-24T04:49:25;4.70;;;2.27;;
44588;SDS011;30298;52.562;13.414;2022-07-24T04:51:50;4.17;;;2.50;;
44588;SDS011;30298;52.562;13.414;2022-07-24T04:54:15;3.47;;;2.60;;
44588;SDS011;30298;52.562;13.414;2022-07-24T04:56:41;4.83;;;2.30;;
44588;SDS011;30298;52.562;13.414;2022-07-24T04:59:06;7.90;;;2.57;;
44588;SDS011;30298;52.562;13.414;2022-07-24T05:01:31;6.03;;;2.40;;
44588;SDS011;30298;52.562;13.414;2022-07-24T05:03:56;4.43;;;2.93;;
44588;SDS011;30298;52.562;13.414;2022-07-24T05:06:23;3.75;;;2.20;;
44588;SDS011;30298;52.562;13.414;2022-07-24T05:08:48;3.27;;;2.20;;
44588;SDS011;30298;52.562;13.414;2022-07-24T05:11:14;4.10;;;2.47;;
44588;SDS011;30298;52.562;13.414;2022-07-24T05:13:39;3.30;;;2.27;;
44588;SDS011;30298;52.562;13.414;2022-07-24T05:16:04;3.73;;;2.40;;
44588;SDS011;30298;52.562;13.414;2022-07-24T05:18:30;2.83;;;2.30;;
44588;SDS011;30298;52.562;13.414;2022-07-24T05:20:55;3.47;;;2.30;;
44588;SDS011;30298;52.562;13.414;2022-07-24T05:23:20;2.17;;;1.93;;
44588;SDS011;30298;52.562;13.414;2022-07-24T05:25:46;2.77;;;2.10;;
44588;SDS011;30298;52.562;13.414;2022-07-24T05:28:11;5.30;;;2.23;;
44588;SDS011;30298;52.562;13.414;2022-07-24T05:30:36;4.73;;;2.40;;
44588;SDS011;30298;52.562;13.414;2022-07-24T05:33:01;5.27;;;2.30;;
44588;SDS011;30298;52.562;13.414;2022-07-24T05:35:27;2.77;;;2.03;;
44588;SDS011;30298;52.562;13.414;2022-07-24T05:37:52;2.97;;;2.50;;
44588;SDS011;30298;52.562;13.414;2022-07-24T05:40:17;9.87;;;2.10;;
44588;SDS011;30298;52.562;13.414;2022-07-24T05:42:43;5.33;;;2.50;;
44588;SDS011;30298;52.562;13.414;2022-07-24T05:45:08;4.30;;;2.20;;
44588;SDS011;30298;52.562;13.414;2022-07-24T05:47:37;4.00;;;2.20;;
44588;SDS011;30298;52.562;13.414;2022-07-24T05:50:05;3.28;;;1.85;;
44588;SDS011;30298;52.562;13.414;2022-07-24T05:52:31;3.22;;;2.10;;
44588;SDS011;30298;52.562;13.414;2022-07-24T05:54:56;4.97;;;2.13;;
44588;SDS011;30298;52.562;13.414;2022-07-24T05:57:21;3.40;;;2.00;;
44588;SDS011;30298;52.562;13.414;2022-07-24T05:59:46;3.43;;;2.03;;
44588;SDS011;30298;52.562;13.414;2022-07-24T06:02:12;3.80;;;1.90;;
44588;SDS011;30298;52.562;13.414;2022-07-24T06:04:37;4.10;;;1.93;;
44588;SDS011;30298;52.562;13.414;2022-07-24T06:07:07;2.83;;;1.88;;
44588;SDS011;30298;52.562;13.414;2022-07-24T06:09:32;3.37;;;1.90;;
44588;SDS011;30298;52.562;13.414;2022-07-24T06:11:57;2.30;;;1.70;;
44588;SDS011;30298;52.562;13.414;2022-07-24T06:14:22;2.30;;;1.80;;
44588;SDS011;30298;52.562;13.414;2022-07-24T06:16:47;2.70;;;1.73;;
44588;SDS011;30298;52.562;13.414;2022-07-24T06:19:13;4.80;;;1.97;;
44588;SDS011;30298;52.562;13.414;2022-07-24T06:21:38;3.87;;;1.83;;
44588;SDS011;30298;52.562;13.414;2022-07-24T06:24:03;4.33;;;1.87;;
44588;SDS011;30298;52.562;13.414;2022-07-24T06:26:29;2.50;;;1.70;;
44588;SDS011;30298;52.562;13.414;2022-07-24T06:28:54;4.97;;;1.85;;
44588;SDS011;30298;52.562;13.414;2022-07-24T06:31:19;2.83;;;1.80;;
44588;SDS011;30298;52.562;13.414;2022-07-24T06:33:45;3.83;;;1.60;;
44588;SDS011;30298;52.562;13.414;2022-07-24T06:36:10;3.90;;;2.27;;
44588;SDS011;30298;52.562;13.414;2022-07-24T06:38:35;2.23;;;1.67;;
44588;SDS011;30298;52.562;13.414;2022-07-24T06:41:01;3.53;;;1.95;;
44588;SDS011;30298;52.562;13.414;2022-07-24T06:43:26;2.80;;;1.67;;
44588;SDS011;30298;52.562;13.414;2022-07-24T06:45:51;2.77;;;2.07;;
44588;SDS011;30298;52.562;13.414;2022-07-24T06:48:17;1.80;;;1.60;;
44588;SDS011;30298;52.562;13.414;2022-07-24T06:50:42;3.70;;;1.90;;
44588;SDS011;30298;52.562;13.414;2022-07-24T06:53:07;1.90;;;1.70;;
44588;SDS011;30298;52.562;13.414;2022-07-24T06:55:32;3.47;;;1.90;;
44588;SDS011;30298;52.562;13.414;2022-07-24T06:57:58;4.43;;;1.90;;
44588;SDS011;30298;52.562;13.414;2022-07-24T07:00:23;2.70;;;1.90;;
44588;SDS011;30298;52.562;13.414;2022-07-24T07:02:48;2.70;;;1.73;;
44588;SDS011;30298;52.562;13.414;2022-07-24T07:05:15;2.97;;;1.50;;
44588;SDS011;30298;52.562;13.414;2022-07-24T07:07:40;2.78;;;1.90;;
44588;SDS011;30298;52.562;13.414;2022-07-24T07:10:07;5.30;;;2.00;;
44588;SDS011;30298;52.562;13.414;2022-07-24T07:12:33;5.22;;;1.80;;
44588;SDS011;30298;52.562;13.414;2022-07-24T07:14:58;2.83;;;1.98;;
44588;SDS011;30298;52.562;13.414;2022-07-24T07:17:24;3.88;;;1.77;;
44588;SDS011;30298;52.562;13.414;2022-07-24T07:19:49;3.50;;;1.90;;
44588;SDS011;30298;52.562;13.414;2022-07-24T07:22:14;3.67;;;2.00;;
44588;SDS011;30298;52.562;13.414;2022-07-24T07:24:40;2.33;;;1.50;;
44588;SDS011;30298;52.562;13.414;2022-07-24T07:27:05;2.30;;;1.70;;
44588;SDS011;30298;52.562;13.414;2022-07-24T07:29:30;6.00;;;2.00;;
44588;SDS011;30298;52.562;13.414;2022-07-24T07:31:55;4.03;;;1.80;;
44588;SDS011;30298;52.562;13.414;2022-07-24T07:34:21;3.03;;;1.90;;
44588;SDS011;30298;52.562;13.414;2022-07-24T07:36:46;2.57;;;1.73;;
44588;SDS011;30298;52.562;13.414;2022-07-24T07:39:11;3.90;;;2.23;;
44588;SDS011;30298;52.562;13.414;2022-07-24T07:41:36;2.35;;;1.50;;
44588;SDS011;30298;52.562;13.414;2022-07-24T07:44:02;2.70;;;1.67;;
44588;SDS011;30298;52.562;13.414;2022-07-24T07:46:27;2.38;;;1.50;;
44588;SDS011;30298;52.562;13.414;2022-07-24T07:48:53;2.03;;;1.52;;
44588;SDS011;30298;52.562;13.414;2022-07-24T07:51:18;6.25;;;2.00;;
44588;SDS011;30298;52.562;13.414;2022-07-24T07:53:44;4.10;;;1.80;;
44588;SDS011;30298;52.562;13.414;2022-07-24T07:56:09;2.33;;;1.60;;
44588;SDS011;30298;52.562;13.414;2022-07-24T07:58:34;3.47;;;1.83;;
44588;SDS011;30298;52.562;13.414;2022-07-24T08:01:00;2.33;;;1.73;;
44588;SDS011;30298;52.562;13.414;2022-07-24T08:03:25;2.27;;;1.77;;
44588;SDS011;30298;52.562;13.414;2022-07-24T08:05:51;2.40;;;1.73;;
44588;SDS011;30298;52.562;13.414;2022-07-24T08:08:16;2.55;;;1.58;;
44588;SDS011;30298;52.562;13.414;2022-07-24T08:10:41;3.73;;;1.60;;
44588;SDS011;30298;52.562;13.414;2022-07-24T08:13:06;5.17;;;1.63;;
44588;SDS011;30298;52.562;13.414;2022-07-24T08:15:31;2.20;;;1.50;;
44588;SDS011;30298;52.562;13.414;2022-07-24T08:17:57;2.63;;;1.60;;
44588;SDS011;30298;52.562;13.414;2022-07-24T08:20:23;1.85;;;1.50;;
44588;SDS011;30298;52.562;13.414;2022-07-24T08:22:49;2.10;;;1.25;;
44588;SDS011;30298;52.562;13.414;2022-07-24T08:25:14;3.47;;;1.55;;
44588;SDS011;30298;52.562;13.414;2022-07-24T08:27:39;1.60;;;1.50;;
44588;SDS011;30298;52.562;13.414;2022-07-24T08:30:05;2.70;;;1.40;;
44588;SDS011;30298;52.562;13.414;2022-07-24T08:32:30;1.60;;;1.40;;
44588;SDS011;30298;52.562;13.414;2022-07-24T08:34:56;3.10;;;1.50;;
44588;SDS011;30298;52.562;13.414;2022-07-24T08:37:21;3.87;;;1.60;;
44588;SDS011;30298;52.562;13.414;2022-07-24T08:39:46;2.40;;;1.50;;
44588;SDS011;30298;52.562;13.414;2022-07-24T08:42:11;2.20;;;1.30;;
44588;SDS011;30298;52.562;13.414;2022-07-24T08:44:38;3.07;;;1.40;;
44588;SDS011;30298;52.562;13.414;2022-07-24T08:47:03;1.40;;;1.20;;
44588;SDS011;30298;52.562;13.414;2022-07-24T08:49:29;1.77;;;1.25;;
44588;SDS011;30298;52.562;13.414;2022-07-24T08:51:55;3.17;;;1.70;;
44588;SDS011;30298;52.562;13.414;2022-07-24T08:54:21;3.70;;;1.67;;
44588;SDS011;30298;52.562;13.414;2022-07-24T08:56:47;1.90;;;1.30;;
44588;SDS011;30298;52.562;13.414;2022-07-24T08:59:18;2.53;;;1.47;;
44588;SDS011;30298;52.562;13.414;2022-07-24T09:01:44;3.05;;;1.38;;
44588;SDS011;30298;52.562;13.414;2022-07-24T09:06:59;2.10;;;1.30;;
44588;SDS011;30298;52.562;13.414;2022-07-24T09:09:24;2.45;;;1.20;;
44588;SDS011;30298;52.562;13.414;2022-07-24T09:11:49;2.42;;;1.20;;
44588;SDS011;30298;52.562;13.414;2022-07-24T09:14:16;2.55;;;1.35;;
44588;SDS011;30298;52.562;13.414;2022-07-24T09:17:08;1.80;;;1.20;;
44588;SDS011;30298;52.562;13.414;2022-07-24T09:22:56;2.25;;;1.20;;
44588;SDS011;30298;52.562;13.414;2022-07-24T09:27:28;2.13;;;1.40;;
44588;SDS011;30298;52.562;13.414;2022-07-24T09:32:21;2.13;;;1.40;;
44588;SDS011;30298;52.562;13.414;2022-07-24T09:34:46;2.38;;;1.40;;
44588;SDS011;30298;52.562;13.414;2022-07-24T09:37:15;3.03;;;1.50;;
44588;SDS011;30298;52.562;13.414;2022-07-24T09:39:41;2.10;;;1.30;;
44588;SDS011;30298;52.562;13.414;2022-07-24T09:42:06;3.88;;;1.40;;
44588;SDS011;30298;52.562;13.414;2022-07-24T09:44:32;2.42;;;1.60;;
44588;SDS011;30298;52.562;13.414;2022-07-24T09:49:23;2.10;;;1.30;;
44588;SDS011;30298;52.562;13.414;2022-07-24T09:54:14;2.38;;;1.45;;
44588;SDS011;30298;52.562;13.414;2022-07-24T09:56:52;1.48;;;1.17;;
44588;SDS011;30298;52.562;13.414;2022-07-24T10:01:43;2.05;;;1.30;;
44588;SDS011;30298;52.562;13.414;2022-07-24T10:06:34;2.92;;;1.92;;
44588;SDS011;30298;52.562;13.414;2022-07-24T10:09:01;2.17;;;1.23;;
44588;SDS011;30298;52.562;13.414;2022-07-24T10:13:52;3.13;;;1.70;;
44588;SDS011;30298;52.562;13.414;2022-07-24T10:18:50;1.90;;;1.38;;
44588;SDS011;30298;52.562;13.414;2022-07-24T10:21:22;2.03;;;1.30;;
44588;SDS011;30298;52.562;13.414;2022-07-24T10:27:02;1.98;;;1.33;;
44588;SDS011;30298;52.562;13.414;2022-07-24T10:29:08;3.03;;;1.60;;
44588;SDS011;30298;52.562;13.414;2022-07-24T10:31:42;3.08;;;1.60;;
44588;SDS011;30298;52.562;13.414;2022-07-24T10:34:12;2.40;;;1.30;;
44588;SDS011;30298;52.562;13.414;2022-07-24T10:36:42;4.25;;;1.63;;
44588;SDS011;30298;52.562;13.414;2022-07-24T10:39:20;3.42;;;1.60;;
44588;SDS011;30298;52.562;13.414;2022-07-24T10:42:02;2.10;;;1.50;;
44588;SDS011;30298;52.562;13.414;2022-07-24T10:44:28;1.85;;;1.30;;
44588;SDS011;30298;52.562;13.414;2022-07-24T10:47:05;2.83;;;1.50;;
44588;SDS011;30298;52.562;13.414;2022-07-24T10:52:09;1.80;;;1.27;;
44588;SDS011;30298;52.562;13.414;2022-07-24T10:54:34;3.40;;;1.50;;
44588;SDS011;30298;52.562;13.414;2022-07-24T10:59:37;2.47;;;1.33;;
44588;SDS011;30298;52.562;13.414;2022-07-24T11:02:28;4.00;;;1.50;;
44588;SDS011;30298;52.562;13.414;2022-07-24T11:07:38;2.55;;;1.58;;
44588;SDS011;30298;52.562;13.414;2022-07-24T11:10:43;2.83;;;1.60;;
44588;SDS011;30298;52.562;13.414;2022-07-24T11:13:38;1.98;;;1.40;;
44588;SDS011;30298;52.562;13.414;2022-07-24T11:18:38;3.25;;;1.63;;
44588;SDS011;30298;52.562;13.414;2022-07-24T11:21:04;2.35;;;1.50;;
44588;SDS011;30298;52.562;13.414;2022-07-24T11:28:39;2.78;;;1.70;;
44588;SDS011;30298;52.562;13.414;2022-07-24T11:31:04;3.22;;;1.80;;
44588;SDS011;30298;52.562;13.414;2022-07-24T11:33:29;3.47;;;1.63;;
44588;SDS011;30298;52.562;13.414;2022-07-24T11:35:55;2.72;;;1.67;;
44588;SDS011;30298;52.562;13.414;2022-07-24T11:38:20;2.80;;;1.50;;
44588;SDS011;30298;52.562;13.414;2022-07-24T11:40:52;2.60;;;1.52;;
44588;SDS011;30298;52.562;13.414;2022-07-24T11:43:28;4.65;;;2.10;;
44588;SDS011;30298;52.562;13.414;2022-07-24T11:45:54;2.50;;;1.45;;
44588;SDS011;30298;52.562;13.414;2022-07-24T11:48:19;2.58;;;1.80;;
44588;SDS011;30298;52.562;13.414;2022-07-24T11:50:45;1.80;;;1.40;;
44588;SDS011;30298;52.562;13.414;2022-07-24T11:53:10;2.47;;;1.50;;
44588;SDS011;30298;52.562;13.414;2022-07-24T11:55:35;3.58;;;1.60;;
44588;SDS011;30298;52.562;13.414;2022-07-24T11:58:02;3.05;;;1.70;;
44588;SDS011;30298;52.562;13.414;2022-07-24T12:00:27;2.00;;;1.60;;
44588;SDS011;30298;52.562;13.414;2022-07-24T12:02:54;2.88;;;1.50;;
44588;SDS011;30298;52.562;13.414;2022-07-24T12:05:27;4.47;;;1.67;;
44588;SDS011;30298;52.562;13.414;2022-07-24T12:07:54;3.05;;;1.70;;
44588;SDS011;30298;52.562;13.414;2022-07-24T12:10:21;3.05;;;1.83;;
44588;SDS011;30298;52.562;13.414;2022-07-24T12:12:47;2.95;;;1.70;;
44588;SDS011;30298;52.562;13.414;2022-07-24T12:15:13;2.83;;;1.67;;
44588;SDS011;30298;52.562;13.414;2022-07-24T12:20:27;2.28;;;1.60;;
44588;SDS011;30298;52.562;13.414;2022-07-24T12:22:53;3.75;;;1.75;;
44588;SDS011;30298;52.562;13.414;2022-07-24T12:25:19;4.65;;;1.40;;
44588;SDS011;30298;52.562;13.414;2022-07-24T12:27:45;2.85;;;1.60;;
44588;SDS011;30298;52.562;13.414;2022-07-24T12:30:22;4.25;;;1.60;;
44588;SDS011;30298;52.562;13.414;2022-07-24T12:33:08;2.47;;;1.60;;
44588;SDS011;30298;52.562;13.414;2022-07-24T12:35:35;2.63;;;1.50;;
44588;SDS011;30298;52.562;13.414;2022-07-24T12:38:22;2.10;;;1.40;;
44588;SDS011;30298;52.562;13.414;2022-07-24T12:40:48;2.22;;;1.52;;
44588;SDS011;30298;52.562;13.414;2022-07-24T12:43:13;2.80;;;1.70;;
44588;SDS011;30298;52.562;13.414;2022-07-24T12:45:39;2.40;;;1.48;;
44588;SDS011;30298;52.562;13.414;2022-07-24T12:48:08;2.13;;;1.50;;
44588;SDS011;30298;52.562;13.414;2022-07-24T12:50:35;2.58;;;1.55;;
44588;SDS011;30298;52.562;13.414;2022-07-24T12:53:09;4.07;;;1.80;;
44588;SDS011;30298;52.562;13.414;2022-07-24T12:55:35;2.78;;;1.88;;
44588;SDS011;30298;52.562;13.414;2022-07-24T12:58:01;2.95;;;1.50;;
44588;SDS011;30298;52.562;13.414;2022-07-24T13:00:26;2.20;;;1.60;;
44588;SDS011;30298;52.562;13.414;2022-07-24T13:02:52;2.05;;;1.67;;
44588;SDS011;30298;52.562;13.414;2022-07-24T13:05:35;2.45;;;1.58;;
44588;SDS011;30298;52.562;13.414;2022-07-24T13:08:00;3.47;;;1.50;;
44588;SDS011;30298;52.562;13.414;2022-07-24T13:10:26;2.43;;;1.80;;
44588;SDS011;30298;52.562;13.414;2022-07-24T13:12:51;2.83;;;1.67;;
44588;SDS011;30298;52.562;13.414;2022-07-24T13:15:17;2.67;;;1.50;;
44588;SDS011;30298;52.562;13.414;2022-07-24T13:17:43;2.78;;;1.80;;
44588;SDS011;30298;52.562;13.414;2022-07-24T13:20:08;2.90;;;1.57;;
44588;SDS011;30298;52.562;13.414;2022-07-24T13:22:33;2.45;;;1.70;;
44588;SDS011;30298;52.562;13.414;2022-07-24T13:24:59;2.33;;;1.70;;
44588;SDS011;30298;52.562;13.414;2022-07-24T13:27:24;2.88;;;1.70;;
44588;SDS011;30298;52.562;13.414;2022-07-24T13:29:49;2.95;;;1.77;;
44588;SDS011;30298;52.562;13.414;2022-07-24T13:32:14;2.80;;;1.70;;
44588;SDS011;30298;52.562;13.414;2022-07-24T13:34:40;2.22;;;1.60;;
44588;SDS011;30298;52.562;13.414;2022-07-24T13:37:05;2.53;;;1.65;;
44588;SDS011;30298;52.562;13.414;2022-07-24T13:39:30;2.80;;;1.70;;
44588;SDS011;30298;52.562;13.414;2022-07-24T13:41:56;2.57;;;1.47;;
44588;SDS011;30298;52.562;13.414;2022-07-24T13:44:21;2.53;;;1.60;;
44588;SDS011;30298;52.562;13.414;2022-07-24T13:46:46;2.57;;;1.60;;
44588;SDS011;30298;52.562;13.414;2022-07-24T13:49:13;2.10;;;1.50;;
44588;SDS011;30298;52.562;13.414;2022-07-24T13:51:39;2.10;;;1.58;;
44588;SDS011;30298;52.562;13.414;2022-07-24T13:54:05;2.55;;;1.75;;
44588;SDS011;30298;52.562;13.414;2022-07-24T13:56:30;2.47;;;1.52;;
44588;SDS011;30298;52.562;13.414;2022-07-24T13:58:56;2.55;;;1.52;;
44588;SDS011;30298;52.562;13.414;2022-07-24T14:01:22;2.90;;;1.58;;
44588;SDS011;30298;52.562;13.414;2022-07-24T14:03:47;2.22;;;1.50;;
44588;SDS011;30298;52.562;13.414;2022-07-24T14:06:12;2.83;;;1.80;;
44588;SDS011;30298;52.562;13.414;2022-07-24T14:08:38;3.40;;;1.77;;
44588;SDS011;30298;52.562;13.414;2022-07-24T14:11:04;2.58;;;1.60;;
44588;SDS011;30298;52.562;13.414;2022-07-24T14:13:30;2.30;;;1.55;;
44588;SDS011;30298;52.562;13.414;2022-07-24T14:15:55;3.25;;;2.35;;
44588;SDS011;30298;52.562;13.414;2022-07-24T14:18:21;2.85;;;1.70;;
44588;SDS011;30298;52.562;13.414;2022-07-24T14:20:46;2.67;;;1.73;;
44588;SDS011;30298;52.562;13.414;2022-07-24T14:23:11;2.83;;;1.77;;
44588;SDS011;30298;52.562;13.414;2022-07-24T14:25:37;2.03;;;1.50;;
44588;SDS011;30298;52.562;13.414;2022-07-24T14:28:02;2.42;;;1.60;;
44588;SDS011;30298;52.562;13.414;2022-07-24T14:30:27;2.35;;;1.70;;
44588;SDS011;30298;52.562;13.414;2022-07-24T14:32:53;2.42;;;1.63;;
44588;SDS011;30298;52.562;13.414;2022-07-24T14:35:18;3.27;;;1.77;;
44588;SDS011;30298;52.562;13.414;2022-07-24T14:37:43;4.97;;;1.87;;
44588;SDS011;30298;52.562;13.414;2022-07-24T14:40:08;2.90;;;1.80;;
44588;SDS011;30298;52.562;13.414;2022-07-24T14:42:34;2.53;;;1.65;;
44588;SDS011;30298;52.562;13.414;2022-07-24T14:45:00;3.25;;;1.90;;
44588;SDS011;30298;52.562;13.414;2022-07-24T14:47:25;5.43;;;1.58;;
44588;SDS011;30298;52.562;13.414;2022-07-24T14:49:51;1.95;;;1.50;;
44588;SDS011;30298;52.562;13.414;2022-07-24T14:52:16;3.03;;;1.70;;
44588;SDS011;30298;52.562;13.414;2022-07-24T14:54:45;2.38;;;1.75;;
44588;SDS011;30298;52.562;13.414;2022-07-24T14:57:11;3.42;;;1.70;;
44588;SDS011;30298;52.562;13.414;2022-07-24T14:59:36;3.28;;;1.77;;
44588;SDS011;30298;52.562;13.414;2022-07-24T15:02:01;2.77;;;1.70;;
44588;SDS011;30298;52.562;13.414;2022-07-24T15:04:27;3.65;;;1.70;;
44588;SDS011;30298;52.562;13.414;2022-07-24T15:06:52;3.45;;;1.90;;
44588;SDS011;30298;52.562;13.414;2022-07-24T15:09:17;2.50;;;1.63;;
44588;SDS011;30298;52.562;13.414;2022-07-24T15:11:42;3.17;;;1.97;;
44588;SDS011;30298;52.562;13.414;2022-07-24T15:14:08;2.70;;;1.70;;
44588;SDS011;30298;52.562;13.414;2022-07-24T15:16:33;2.90;;;1.30;;
44588;SDS011;30298;52.562;13.414;2022-07-24T15:18:58;2.40;;;1.70;;